createdAt,value
2023-01-20T00:01:48.032Z,99470.31
2023-01-20T00:04:18.987Z,99465.06
2023-01-20T00:06:47.741Z,99472.50
2023-01-20T00:09:19.669Z,99478.88
2023-01-20T00:11:48.462Z,99483.41
2023-01-20T00:14:17.663Z,99483.03
2023-01-20T00:16:46.099Z,99486.38
2023-01-20T00:19:15.786Z,99476.47
2023-01-20T00:21:44.237Z,99487.41
2023-01-20T00:24:12.951Z,99488.03
2023-01-20T00:26:43.034Z,99487.59
2023-01-20T00:29:11.715Z,99485.91
2023-01-20T00:31:40.335Z,99489.38
2023-01-20T00:34:10.747Z,99484.06
2023-01-20T00:36:39.562Z,99481.16
2023-01-20T00:39:07.913Z,99487.00
2023-01-20T00:41:36.402Z,99494.28
2023-01-20T00:44:06.744Z,99499.03
2023-01-20T00:46:35.000Z,99502.91
2023-01-20T00:49:03.588Z,99491.94
2023-01-20T00:51:31.976Z,99507.97
2023-01-20T00:54:00.359Z,99499.47
2023-01-20T00:56:29.028Z,99501.00
2023-01-20T00:58:57.349Z,99505.66
2023-01-20T01:01:27.248Z,99502.00
2023-01-20T01:03:55.827Z,99508.16
2023-01-20T01:06:24.440Z,99503.72
2023-01-20T01:08:53.035Z,99502.50
2023-01-20T01:11:21.505Z,99502.56
2023-01-20T01:13:49.879Z,99511.53
2023-01-20T01:16:18.198Z,99509.44
2023-01-20T01:18:48.078Z,99520.31
2023-01-20T01:21:18.295Z,99521.56
2023-01-20T01:23:46.792Z,99531.13
2023-01-20T01:26:16.144Z,99536.31
2023-01-20T01:28:44.788Z,99534.56
2023-01-20T01:31:13.271Z,99540.09
2023-01-20T01:33:41.984Z,99540.03
2023-01-20T01:36:15.659Z,99545.75
2023-01-20T01:38:44.194Z,99544.34
2023-01-20T01:41:15.133Z,99543.25
2023-01-20T01:44:03.433Z,99549.69
2023-01-20T01:46:31.793Z,99548.38
2023-01-20T01:49:02.338Z,99546.16
2023-01-20T01:51:37.225Z,99558.53
2023-01-20T01:54:10.966Z,99553.97
2023-01-20T01:56:41.716Z,99564.31
2023-01-20T01:59:16.246Z,99567.53
2023-01-20T02:01:50.745Z,99561.38
2023-01-20T02:04:22.234Z,99567.16
2023-01-20T02:06:55.877Z,99561.63
2023-01-20T02:09:26.444Z,99565.69
2023-01-20T02:11:58.098Z,99568.19
2023-01-20T02:14:32.521Z,99566.75
2023-01-20T02:17:06.940Z,99575.16
2023-01-20T02:20:07.691Z,99577.44
2023-01-20T02:22:45.190Z,99580.56
2023-01-20T02:26:12.671Z,99575.97
2023-01-20T02:29:25.106Z,99575.78
2023-01-20T02:32:26.549Z,99577.69
2023-01-20T02:35:01.974Z,99568.91
2023-01-20T02:37:37.215Z,99570.44
2023-01-20T02:40:20.238Z,99580.19
2023-01-20T02:42:58.923Z,99582.13
2023-01-20T02:45:33.925Z,99575.81
2023-01-20T02:48:10.809Z,99578.47
2023-01-20T02:50:47.353Z,99573.41
2023-01-20T02:53:18.027Z,99570.03
2023-01-20T02:55:50.234Z,99575.97
2023-01-20T02:58:25.428Z,99575.97
2023-01-20T03:00:58.806Z,99579.75
2023-01-20T03:03:34.578Z,99580.50
2023-01-20T03:06:09.012Z,99582.63
2023-01-20T03:08:40.063Z,99584.19
2023-01-20T03:11:10.578Z,99576.19
2023-01-20T03:13:47.251Z,99582.59
2023-01-20T03:16:20.140Z,99582.25
2023-01-20T03:18:51.053Z,99584.56
2023-01-20T03:21:20.431Z,99596.00
2023-01-20T03:23:51.958Z,99592.34
2023-01-20T03:26:23.522Z,99600.50
2023-01-20T03:28:53.498Z,99595.28
2023-01-20T03:31:27.521Z,99593.91
2023-01-20T03:34:01.241Z,99597.69
2023-01-20T03:36:32.111Z,99598.94
2023-01-20T03:39:01.636Z,99600.44
2023-01-20T03:41:43.674Z,99597.13
2023-01-20T03:44:20.873Z,99601.63
2023-01-20T03:46:55.048Z,99600.44
2023-01-20T03:49:34.097Z,99602.63
2023-01-20T03:52:08.647Z,99612.44
2023-01-20T03:54:46.093Z,99615.56
2023-01-20T03:57:20.881Z,99618.41
2023-01-20T03:59:52.393Z,99613.28
2023-01-20T04:02:21.927Z,99611.06
2023-01-20T04:04:54.283Z,99612.72
2023-01-20T04:07:26.339Z,99618.50
2023-01-20T04:10:01.962Z,99605.75
2023-01-20T04:12:30.759Z,99610.81
2023-01-20T04:15:02.097Z,99617.47
2023-01-20T04:17:31.127Z,99619.06
2023-01-20T04:20:05.476Z,99619.13
2023-01-20T04:22:40.458Z,99628.75
2023-01-20T04:25:16.425Z,99616.94
2023-01-20T04:27:44.784Z,99620.97
2023-01-20T04:30:15.799Z,99625.19
2023-01-20T04:32:44.316Z,99627.56
2023-01-20T04:35:17.192Z,99637.47
2023-01-20T04:37:46.015Z,99631.72
2023-01-20T04:40:15.034Z,99620.78
2023-01-20T04:42:43.912Z,99633.94
2023-01-20T04:45:17.315Z,99633.91
2023-01-20T04:47:46.174Z,99634.28
2023-01-20T04:50:16.861Z,99633.00
2023-01-20T04:52:45.730Z,99634.09
2023-01-20T04:55:14.982Z,99645.84
2023-01-20T04:57:43.780Z,99647.38
2023-01-20T05:00:18.678Z,99643.09
2023-01-20T05:02:47.616Z,99639.78
2023-01-20T05:05:18.052Z,99643.91
2023-01-20T05:07:46.562Z,99649.97
2023-01-20T05:10:15.028Z,99649.59
2023-01-20T05:12:43.592Z,99658.78
2023-01-20T05:15:12.920Z,99652.53
2023-01-20T05:17:41.781Z,99652.09
2023-01-20T05:20:12.597Z,99657.28
2023-01-20T05:22:43.067Z,99650.59
2023-01-20T05:25:11.697Z,99658.38
2023-01-20T05:27:40.325Z,99659.50
2023-01-20T05:30:10.782Z,99663.16
2023-01-20T05:32:38.975Z,99671.63
2023-01-20T05:35:11.369Z,99672.88
2023-01-20T05:37:41.178Z,99670.88
2023-01-20T05:40:11.779Z,99676.75
2023-01-20T05:42:40.789Z,99676.94
2023-01-20T05:45:10.476Z,99689.91
2023-01-20T05:47:38.906Z,99680.28
2023-01-20T05:50:08.874Z,99677.13
2023-01-20T05:52:37.188Z,99683.53
2023-01-20T05:55:07.689Z,99675.44
2023-01-20T05:57:36.145Z,99684.22
2023-01-20T06:00:07.932Z,99691.22
2023-01-20T06:02:37.257Z,99683.34
2023-01-20T06:05:06.827Z,99699.22
2023-01-20T06:07:35.354Z,99702.03
2023-01-20T06:10:03.883Z,99700.06
2023-01-20T06:12:33.882Z,99708.53
2023-01-20T06:15:02.419Z,99709.19
2023-01-20T06:17:31.174Z,99703.88
2023-01-20T06:20:00.467Z,99718.38
2023-01-20T06:22:29.025Z,99719.94
2023-01-20T06:24:58.073Z,99716.75
2023-01-20T06:27:26.287Z,99716.72
2023-01-20T06:29:56.491Z,99729.84
2023-01-20T06:32:25.056Z,99722.88
2023-01-20T06:34:54.012Z,99725.50
2023-01-20T06:37:22.524Z,99726.28
2023-01-20T06:39:51.223Z,99727.53
2023-01-20T06:42:19.613Z,99730.81
2023-01-20T06:44:48.164Z,99737.25
2023-01-20T06:47:17.978Z,99734.22
2023-01-20T06:49:47.916Z,99729.25
2023-01-20T06:52:18.048Z,99732.28
2023-01-20T06:54:46.475Z,99727.47
2023-01-20T06:57:14.882Z,99724.47
2023-01-20T06:59:43.122Z,99730.78
2023-01-20T07:02:13.132Z,99730.44
2023-01-20T07:04:43.556Z,99733.75
2023-01-20T07:07:13.907Z,99740.53
2023-01-20T07:09:42.417Z,99740.72
2023-01-20T07:12:10.924Z,99744.94
2023-01-20T07:14:39.669Z,99747.91
2023-01-20T07:17:13.179Z,99738.50
2023-01-20T07:19:43.273Z,99743.19
2023-01-20T07:22:11.555Z,99745.69
2023-01-20T07:24:40.254Z,99751.72
2023-01-20T07:27:08.798Z,99758.31
2023-01-20T07:29:38.127Z,99750.66
2023-01-20T07:32:07.031Z,99748.22
2023-01-20T07:34:35.700Z,99757.06
2023-01-20T07:37:05.433Z,99760.28
2023-01-20T07:39:33.983Z,99758.47
2023-01-20T07:42:05.541Z,99771.31
2023-01-20T07:44:34.265Z,99778.59
2023-01-20T07:47:02.906Z,99779.22
2023-01-20T07:49:31.345Z,99777.25
2023-01-20T07:51:59.773Z,99784.19
2023-01-20T07:54:29.561Z,99789.09
2023-01-20T07:56:57.785Z,99794.69
2023-01-20T07:59:26.769Z,99802.16
2023-01-20T08:01:55.156Z,99802.94
2023-01-20T08:04:23.390Z,99795.25
2023-01-20T08:06:51.997Z,99795.75
2023-01-20T08:09:20.389Z,99802.22
2023-01-20T08:11:50.441Z,99801.13
2023-01-20T08:14:18.686Z,99800.47
2023-01-20T08:16:47.025Z,99790.03
2023-01-20T08:19:15.295Z,99793.00
2023-01-20T08:21:43.642Z,99790.72
2023-01-20T08:24:12.169Z,99791.06
2023-01-20T08:26:40.799Z,99788.53
2023-01-20T08:29:11.429Z,99797.03
2023-01-20T08:31:41.287Z,99798.41
2023-01-20T08:34:10.433Z,99806.34
2023-01-20T08:36:42.093Z,99812.41
2023-01-20T08:39:14.541Z,99827.25
2023-01-20T08:41:45.504Z,99817.81
2023-01-20T08:44:17.546Z,99821.25
2023-01-20T08:46:46.970Z,99819.69
2023-01-20T08:49:18.566Z,99818.34
2023-01-20T08:51:47.190Z,99819.88
2023-01-20T08:54:16.204Z,99823.59
2023-01-20T08:56:45.196Z,99823.94
2023-01-20T08:59:14.800Z,99820.38
2023-01-20T09:01:43.755Z,99831.28
2023-01-20T09:04:13.216Z,99828.06
2023-01-20T09:06:45.104Z,99828.25
2023-01-20T09:09:15.018Z,99824.41
2023-01-20T09:11:45.060Z,99828.19
2023-01-20T09:14:14.759Z,99822.78
2023-01-20T09:16:43.406Z,99823.03
2023-01-20T09:19:12.106Z,99824.41
2023-01-20T09:21:40.411Z,99829.91
2023-01-20T09:24:09.584Z,99830.03
2023-01-20T09:26:41.061Z,99827.72
2023-01-20T09:29:13.471Z,99828.66
2023-01-20T09:31:46.857Z,99827.25
2023-01-20T09:34:19.940Z,99823.97
2023-01-20T09:36:52.546Z,99823.59
2023-01-20T09:39:39.464Z,99829.06
2023-01-20T09:42:43.643Z,99820.59
2023-01-20T09:45:25.022Z,99822.00
2023-01-20T09:48:06.848Z,99817.03
2023-01-20T09:51:05.510Z,99821.81
2023-01-20T09:53:52.005Z,99828.25
2023-01-20T09:56:25.802Z,99833.16
2023-01-20T09:59:01.955Z,99825.88
2023-01-20T10:01:37.770Z,99827.88
2023-01-20T10:04:15.705Z,99830.63
2023-01-20T10:06:50.116Z,99833.88
2023-01-20T10:09:25.999Z,99836.28
2023-01-20T10:12:03.041Z,99841.50
2023-01-20T10:14:36.562Z,99849.00
2023-01-20T10:17:11.318Z,99842.56
2023-01-20T10:19:49.354Z,99855.63
2023-01-20T10:22:22.580Z,99857.53
2023-01-20T10:24:56.630Z,99856.84
2023-01-20T10:27:30.074Z,99865.09
2023-01-20T10:30:08.983Z,99862.56
2023-01-20T10:32:40.037Z,99856.09
2023-01-20T10:35:18.697Z,99856.28
2023-01-20T10:37:48.084Z,99852.06
2023-01-20T10:40:27.024Z,99843.78
2023-01-20T10:43:00.504Z,99838.38
2023-01-20T10:45:42.056Z,99830.84
2023-01-20T10:48:22.778Z,99834.16
2023-01-20T10:51:01.305Z,99829.91
2023-01-20T10:53:42.540Z,99826.44
2023-01-20T10:56:36.358Z,99825.59
2023-01-20T10:59:14.105Z,99820.28
2023-01-20T11:01:46.707Z,99823.09
2023-01-20T11:04:19.573Z,99824.84
2023-01-20T11:06:53.795Z,99830.47
2023-01-20T11:09:35.344Z,99832.72
2023-01-20T11:12:05.647Z,99838.72
2023-01-20T11:14:34.877Z,99833.94
2023-01-20T11:17:07.469Z,99840.38
2023-01-20T11:19:52.618Z,99841.47
2023-01-20T11:22:31.155Z,99833.38
2023-01-20T11:25:04.168Z,99833.91
2023-01-20T11:27:44.507Z,99838.06
2023-01-20T11:30:28.337Z,99839.63
2023-01-20T11:33:18.069Z,99841.09
2023-01-20T11:36:01.235Z,99838.22
2023-01-20T11:38:33.167Z,99841.81
2023-01-20T11:41:01.405Z,99839.25
2023-01-20T11:43:38.354Z,99835.19
2023-01-20T11:46:22.545Z,99830.81
2023-01-20T11:48:51.930Z,99835.19
2023-01-20T11:51:25.235Z,99837.78
2023-01-20T11:54:10.053Z,99827.13
2023-01-20T11:56:43.398Z,99832.84
2023-01-20T11:59:25.263Z,99825.56
2023-01-20T12:02:02.983Z,99830.81
2023-01-20T12:04:50.929Z,99829.91
2023-01-20T12:07:28.036Z,99830.34
2023-01-20T12:10:05.995Z,99824.38
2023-01-20T12:12:41.577Z,99829.56
2023-01-20T12:15:18.021Z,99823.59
2023-01-20T12:17:55.101Z,99824.31
2023-01-20T12:20:31.948Z,99819.34
2023-01-20T12:23:21.103Z,99812.81
2023-01-20T12:25:58.820Z,99812.56
2023-01-20T12:28:35.452Z,99808.69
2023-01-20T12:31:05.562Z,99811.44
2023-01-20T12:33:37.260Z,99809.00
2023-01-20T12:36:56.828Z,99810.19
2023-01-20T12:39:42.855Z,99807.75
2023-01-20T12:43:02.854Z,99804.34
2023-01-20T12:45:53.317Z,99804.22
2023-01-20T12:48:35.181Z,99809.66
2023-01-20T12:51:21.477Z,99809.47
2023-01-20T12:54:30.529Z,99810.31
2023-01-20T12:57:22.123Z,99817.13
2023-01-20T13:00:14.345Z,99808.56
2023-01-20T13:03:09.432Z,99815.00
2023-01-20T13:06:13.635Z,99815.66
2023-01-20T13:08:51.310Z,99807.09
2023-01-20T13:11:39.129Z,99816.66
2023-01-20T13:14:15.592Z,99812.19
2023-01-20T13:16:56.959Z,99811.91
2023-01-20T13:19:31.125Z,99809.00
2023-01-20T13:22:14.902Z,99809.63
2023-01-20T13:24:47.095Z,99807.78
2023-01-20T13:27:19.333Z,99810.47
2023-01-20T13:29:56.693Z,99811.19
2023-01-20T13:32:36.473Z,99801.25
2023-01-20T13:35:45.789Z,99801.63
2023-01-20T13:38:24.191Z,99799.69
2023-01-20T13:40:57.037Z,99800.06
2023-01-20T13:43:48.449Z,99805.09
2023-01-20T13:46:51.365Z,99796.28
2023-01-20T13:49:48.685Z,99801.34
2023-01-20T13:52:17.367Z,99806.75
2023-01-20T13:54:48.980Z,99805.28
2023-01-20T13:57:38.017Z,99812.47
2023-01-20T14:00:18.546Z,99808.88
2023-01-20T14:02:49.119Z,99820.38
2023-01-20T14:05:32.961Z,99813.75
2023-01-20T14:08:01.822Z,99816.03
2023-01-20T14:10:30.547Z,99822.09
2023-01-20T14:12:59.082Z,99820.72
2023-01-20T14:15:40.094Z,99824.09
2023-01-20T14:18:18.829Z,99825.06
2023-01-20T14:21:03.684Z,99831.72
2023-01-20T14:23:36.936Z,99831.53
2023-01-20T14:26:13.008Z,99827.06
2023-01-20T14:28:50.926Z,99823.97
2023-01-20T14:31:40.479Z,99829.94
2023-01-20T14:34:28.141Z,99836.38
2023-01-20T14:37:02.379Z,99832.78
2023-01-20T14:39:31.996Z,99831.22
2023-01-20T14:42:02.479Z,99828.34
2023-01-20T14:44:33.814Z,99835.22
2023-01-20T14:47:04.723Z,99842.66
2023-01-20T14:49:39.590Z,99841.50
2023-01-20T14:52:13.857Z,99847.28
2023-01-20T14:54:45.908Z,99855.69
2023-01-20T14:57:36.286Z,99857.44
2023-01-20T15:00:22.959Z,99860.75
2023-01-20T15:03:09.468Z,99866.00
2023-01-20T15:05:41.908Z,99865.22
2023-01-20T15:08:26.834Z,99875.34
2023-01-20T15:11:21.951Z,99877.81
2023-01-20T15:14:12.389Z,99876.25
2023-01-20T15:16:51.908Z,99876.97
2023-01-20T15:19:36.184Z,99880.94
2023-01-20T15:22:23.543Z,99880.94
2023-01-20T15:24:54.893Z,99888.22
2023-01-20T15:27:31.348Z,99897.78
2023-01-20T15:30:21.403Z,99894.91
2023-01-20T15:32:51.188Z,99895.25
2023-01-20T15:35:22.946Z,99896.00
2023-01-20T15:37:52.245Z,99905.88
2023-01-20T15:40:25.003Z,99903.38
2023-01-20T15:42:53.427Z,99906.06
2023-01-20T15:45:22.132Z,99923.63
2023-01-20T15:47:50.404Z,99933.84
2023-01-20T15:50:23.033Z,99916.81
2023-01-20T15:52:51.485Z,99924.38
2023-01-20T15:55:22.266Z,99937.47
2023-01-20T15:57:53.517Z,99935.78
2023-01-20T16:00:25.024Z,99941.97
2023-01-20T16:02:53.790Z,99954.56
2023-01-20T16:05:22.640Z,99950.50
2023-01-20T16:07:51.629Z,99955.66
2023-01-20T16:10:22.036Z,99965.31
2023-01-20T16:12:51.275Z,99960.72
2023-01-20T16:15:20.414Z,99956.38
2023-01-20T16:17:51.189Z,99957.50
2023-01-20T16:20:23.068Z,99961.28
2023-01-20T16:22:52.137Z,99973.50
2023-01-20T16:25:22.431Z,99976.63
2023-01-20T16:27:51.223Z,99981.03
2023-01-20T16:30:23.268Z,99983.53
2023-01-20T16:32:52.073Z,99995.28
2023-01-20T16:35:23.708Z,99988.75
2023-01-20T16:37:53.150Z,99997.22
2023-01-20T16:40:24.747Z,100006.34
2023-01-20T16:42:56.156Z,100002.75
2023-01-20T16:45:30.444Z,100003.00
2023-01-20T16:47:59.315Z,100006.63
2023-01-20T16:50:28.361Z,100012.44
2023-01-20T16:52:57.632Z,100008.38
2023-01-20T16:55:27.320Z,100018.59
2023-01-20T16:57:55.777Z,100028.59
2023-01-20T17:00:24.406Z,100030.97
2023-01-20T17:02:53.316Z,100038.28
2023-01-20T17:05:25.506Z,100042.88
2023-01-20T17:07:56.758Z,100052.66
2023-01-20T17:10:29.459Z,100039.72
2023-01-20T17:12:57.873Z,100039.75
2023-01-20T17:15:27.099Z,100043.84
2023-01-20T17:17:59.783Z,100052.69
2023-01-20T17:20:28.476Z,100057.84
2023-01-20T17:22:56.928Z,100057.53
2023-01-20T17:25:27.616Z,100061.41
2023-01-20T17:27:56.137Z,100069.88
2023-01-20T17:30:26.626Z,100082.06
2023-01-20T17:32:55.461Z,100087.88
2023-01-20T17:35:24.192Z,100092.25
2023-01-20T17:37:52.793Z,100092.34
2023-01-20T17:40:21.161Z,100100.28
2023-01-20T17:42:53.913Z,100105.75
2023-01-20T17:45:22.822Z,100112.50
2023-01-20T17:47:52.723Z,100121.63
2023-01-20T17:50:21.309Z,100121.03
2023-01-20T17:52:49.915Z,100119.25
2023-01-20T17:55:18.539Z,100132.13
2023-01-20T17:57:47.832Z,100130.53
2023-01-20T18:00:20.336Z,100149.19
2023-01-20T18:02:48.555Z,100135.25
2023-01-20T18:05:17.158Z,100143.22
2023-01-20T18:07:45.528Z,100147.19
2023-01-20T18:10:14.623Z,100145.38
2023-01-20T18:12:43.135Z,100151.69
2023-01-20T18:15:12.355Z,100164.88
2023-01-20T18:17:43.320Z,100153.31
2023-01-20T18:20:15.167Z,100170.06
2023-01-20T18:22:49.366Z,100174.63
2023-01-20T18:25:18.075Z,100177.09
2023-01-20T18:27:46.626Z,100176.28
2023-01-20T18:30:16.431Z,100180.28
2023-01-20T18:32:46.811Z,100180.47
2023-01-20T18:35:15.953Z,100184.69
2023-01-20T18:37:47.877Z,100190.41
2023-01-20T18:40:16.500Z,100187.47
2023-01-20T18:42:45.300Z,100200.16
2023-01-20T18:45:13.605Z,100198.53
2023-01-20T18:47:42.048Z,100199.50
2023-01-20T18:50:13.024Z,100208.94
2023-01-20T18:52:41.374Z,100211.38
2023-01-20T18:55:10.865Z,100213.16
2023-01-20T18:57:39.566Z,100222.69
2023-01-20T19:00:10.282Z,100219.13
2023-01-20T19:02:38.776Z,100223.16
2023-01-20T19:05:09.318Z,100233.81
2023-01-20T19:07:39.148Z,100234.16
2023-01-20T19:10:08.151Z,100232.81
2023-01-20T19:12:36.541Z,100238.56
2023-01-20T19:15:05.924Z,100246.31
2023-01-20T19:17:34.220Z,100250.66
2023-01-20T19:20:04.389Z,100251.41
2023-01-20T19:22:32.579Z,100244.44
2023-01-20T19:25:02.383Z,100265.53
2023-01-20T19:27:32.615Z,100259.25
2023-01-20T19:30:01.041Z,100265.34
2023-01-20T19:32:29.435Z,100265.16
2023-01-20T19:34:58.966Z,100264.75
2023-01-20T19:37:28.348Z,100290.84
2023-01-20T19:39:57.073Z,100283.13
2023-01-20T19:42:27.292Z,100282.94
2023-01-20T19:44:55.715Z,100292.28
2023-01-20T19:47:24.298Z,100300.94
2023-01-20T19:49:52.712Z,100296.22
2023-01-20T19:52:21.037Z,100299.41
2023-01-20T19:54:51.718Z,100310.44
2023-01-20T19:57:20.278Z,100310.22
2023-01-20T19:59:51.060Z,100316.69
2023-01-20T20:02:19.772Z,100326.88
2023-01-20T20:04:48.684Z,100327.72
2023-01-20T20:07:17.141Z,100333.69
2023-01-20T20:09:45.446Z,100325.75
2023-01-20T20:12:13.942Z,100334.94
2023-01-20T20:14:42.235Z,100348.84
2023-01-20T20:17:12.112Z,100348.75
2023-01-20T20:19:40.968Z,100355.00
2023-01-20T20:22:09.427Z,100357.56
2023-01-20T20:24:37.722Z,100358.81
2023-01-20T20:27:05.929Z,100358.81
2023-01-20T20:29:34.338Z,100369.50
2023-01-20T20:32:03.189Z,100369.56
2023-01-20T20:34:33.421Z,100377.75
2023-01-20T20:37:02.843Z,100380.06
2023-01-20T20:39:31.110Z,100388.38
2023-01-20T20:42:00.108Z,100393.22
2023-01-20T20:44:28.700Z,100394.75
2023-01-20T20:46:57.894Z,100399.59
2023-01-20T20:49:26.602Z,100409.00
2023-01-20T20:51:56.338Z,100417.69
2023-01-20T20:54:24.806Z,100422.06
2023-01-20T20:56:53.547Z,100421.75
2023-01-20T20:59:25.170Z,100419.94
2023-01-20T21:01:54.703Z,100431.25
2023-01-20T21:04:23.242Z,100442.06
2023-01-20T21:06:51.746Z,100443.44
2023-01-20T21:09:21.834Z,100445.19
2023-01-20T21:11:50.060Z,100451.59
2023-01-20T21:14:21.208Z,100460.59
2023-01-20T21:16:50.609Z,100466.16
2023-01-20T21:19:18.849Z,100463.81
2023-01-20T21:21:47.248Z,100479.09
2023-01-20T21:24:15.483Z,100480.41
2023-01-20T21:26:45.418Z,100480.41
2023-01-20T21:29:14.668Z,100476.13
2023-01-20T21:31:43.293Z,100485.16
2023-01-20T21:34:15.335Z,100485.72
2023-01-20T21:36:43.688Z,100492.94
2023-01-20T21:39:16.168Z,100495.22
2023-01-20T21:41:46.721Z,100494.75
2023-01-20T21:44:32.750Z,100501.25
2023-01-20T21:47:03.238Z,100505.50
2023-01-20T21:49:49.666Z,100507.69
2023-01-20T21:52:37.918Z,100516.91
2023-01-20T21:55:08.731Z,100521.28
2023-01-20T21:57:39.691Z,100525.44
2023-01-20T22:00:10.657Z,100533.41
2023-01-20T22:02:44.809Z,100528.97
2023-01-20T22:05:18.781Z,100534.09
2023-01-20T22:07:48.382Z,100537.94
2023-01-20T22:10:18.058Z,100547.69
2023-01-20T22:12:48.255Z,100544.81
2023-01-20T22:15:16.894Z,100556.75
2023-01-20T22:17:45.321Z,100566.16
2023-01-20T22:20:14.367Z,100564.06
2023-01-20T22:22:43.272Z,100580.91
2023-01-20T22:25:11.797Z,100577.63
2023-01-20T22:27:40.151Z,100574.44
2023-01-20T22:30:12.081Z,100583.22
2023-01-20T22:32:40.602Z,100582.00
2023-01-20T22:35:12.644Z,100594.41
2023-01-20T22:37:41.069Z,100586.31
2023-01-20T22:40:11.368Z,100596.69
2023-01-20T22:42:39.827Z,100591.84
2023-01-20T22:45:11.977Z,100589.22
2023-01-20T22:47:40.568Z,100598.47
2023-01-20T22:50:10.963Z,100604.31
2023-01-20T22:52:39.202Z,100605.22
2023-01-20T22:55:08.798Z,100603.28
2023-01-20T22:57:37.105Z,100609.03
2023-01-20T23:00:08.477Z,100603.16
2023-01-20T23:02:38.835Z,100611.81
2023-01-20T23:05:07.679Z,100609.69
2023-01-20T23:07:37.606Z,100618.50
2023-01-20T23:10:07.304Z,100618.75
2023-01-20T23:12:35.747Z,100619.25
2023-01-20T23:15:04.616Z,100621.00
2023-01-20T23:17:33.703Z,100622.56
2023-01-20T23:20:03.601Z,100629.41
2023-01-20T23:22:32.073Z,100635.25
2023-01-20T23:25:00.444Z,100635.44
2023-01-20T23:27:29.174Z,100631.97
2023-01-20T23:29:57.827Z,100636.09
2023-01-20T23:32:26.417Z,100650.47
2023-01-20T23:34:55.054Z,100651.28
2023-01-20T23:37:25.124Z,100657.09
2023-01-20T23:39:53.423Z,100651.63
2023-01-20T23:42:22.216Z,100665.47
2023-01-20T23:44:50.759Z,100662.84
2023-01-20T23:47:19.103Z,100672.38
2023-01-20T23:49:47.481Z,100666.03
2023-01-20T23:52:16.138Z,100682.13
2023-01-20T23:54:45.924Z,100680.16
2023-01-20T23:57:14.807Z,100679.78
2023-01-20T23:59:43.375Z,100688.25
